Time;durP1;ratioP1;P1;durP2;ratioP2;P2;SDS_P1;SDS_P2;PMS_P1;PMS_P2;Temp;Humidity;BMP_temperature;BMP_pressure;BME280_temperature;BME280_humidity;BME280_pressure;Samples;Min_cycle;Max_cycle;Signal;HPM_P1;HPM_P2
2021/08/08 00:00:33;;;;;;;6.78;3.08;;;14.60;99.90;;;;;;6334011;22;20018;-94
2021/08/08 00:03:02;;;;;;;4.35;3.20;;;14.60;99.90;;;;;;6335089;22;19988;-94
2021/08/08 00:05:27;;;;;;;4.93;2.97;;;14.60;99.90;;;;;;6319500;22;20011;-94
2021/08/08 00:07:54;;;;;;;5.15;2.85;;;14.60;99.90;;;;;;6316023;22;20003;-93
2021/08/08 00:10:19;;;;;;;7.75;2.88;;;14.60;99.90;;;;;;6315130;22;20045;-94
2021/08/08 00:12:45;;;;;;;5.75;2.80;;;14.60;99.90;;;;;;6314884;22;20008;-93
2021/08/08 00:15:22;;;;;;;;;;;;;;;;;;;;;
2021/08/08 00:18:05;;;;;;;7.43;2.70;;;14.60;99.90;;;;;;6309244;22;20046;-94
2021/08/08 00:23:35;;;;;;;6.60;2.70;;;14.50;99.90;;;;;;6325670;22;20041;-93
2021/08/08 00:26:01;;;;;;;5.55;2.40;;;14.60;99.90;;;;;;6321434;22;20314;-95
2021/08/08 00:28:27;;;;;;;3.65;2.22;;;14.50;99.90;;;;;;6320370;22;20003;-94
2021/08/08 00:31:42;;;;;;;3.47;2.10;;;14.50;99.90;;;;;;6320210;22;20033;-94
2021/08/08 00:34:59;;;;;;;4.57;2.40;;;14.50;99.90;;;;;;6272399;22;19995;-95
2021/08/08 00:37:25;;;;;;;3.00;2.30;;;14.50;99.90;;;;;;6314079;22;20035;-93
2021/08/08 00:43:49;;;;;;;5.47;2.22;;;14.40;99.90;;;;;;6249751;23;20015;-94
2021/08/08 00:46:29;;;;;;;5.15;3.03;;;14.40;99.90;;;;;;6218617;23;20016;-94
2021/08/08 00:48:58;;;;;;;7.45;3.20;;;14.40;99.90;;;;;;6222346;23;20008;-94
2021/08/08 00:52:15;;;;;;;9.15;3.78;;;14.40;99.90;;;;;;6248270;23;20008;-95
2021/08/08 00:55:00;;;;;;;7.60;2.90;;;14.40;99.90;;;;;;6070572;23;20015;-94
2021/08/08 00:57:37;;;;;;;7.38;3.72;;;14.40;99.90;;;;;;6070423;23;20018;-93
2021/08/08 01:00:12;;;;;;;11.75;3.30;;;14.40;99.90;;;;;;6070165;23;20003;-94
2021/08/08 01:02:45;;;;;;;11.40;3.50;;;14.40;99.90;;;;;;6069618;23;20022;-93
2021/08/08 01:05:26;;;;;;;9.20;3.20;;;14.40;99.90;;;;;;6070176;23;20070;-94
2021/08/08 01:07:58;;;;;;;6.10;2.88;;;14.40;99.90;;;;;;6070901;23;20007;-94
2021/08/08 01:10:24;;;;;;;4.22;2.95;;;14.40;99.90;;;;;;6070981;23;20003;-94
2021/08/08 01:12:51;;;;;;;4.18;2.65;;;14.40;99.90;;;;;;6069851;23;20011;-94
2021/08/08 01:15:23;;;;;;;6.60;2.78;;;14.40;99.90;;;;;;6069620;23;20010;-94
2021/08/08 01:17:49;;;;;;;6.25;2.67;;;14.40;99.90;;;;;;6083060;23;20089;-92
2021/08/08 01:20:18;;;;;;;7.97;2.65;;;14.50;99.90;;;;;;6103527;23;20002;-93
2021/08/08 01:22:52;;;;;;;11.68;3.50;;;14.40;99.90;;;;;;6103078;23;20006;-92
2021/08/08 01:25:23;;;;;;;4.38;2.75;;;14.50;99.90;;;;;;6127338;23;20009;-93
2021/08/08 01:27:58;;;;;;;6.55;2.70;;;14.40;99.90;;;;;;6103135;23;20006;-94
2021/08/08 01:30:36;;;;;;;5.88;2.15;;;14.40;99.90;;;;;;6147328;22;20007;-95
2021/08/08 01:33:14;;;;;;;4.55;2.00;;;14.40;99.90;;;;;;6285031;22;20000;-93
2021/08/08 01:35:52;;;;;;;4.80;2.28;;;14.40;99.90;;;;;;6284501;22;20019;-95
2021/08/08 01:38:47;;;;;;;5.32;2.25;;;14.40;99.90;;;;;;6282449;22;20019;-94
2021/08/08 01:41:15;;;;;;;3.53;2.35;;;14.40;99.90;;;;;;6283747;22;20011;-92
2021/08/08 01:43:50;;;;;;;7.80;2.25;;;14.40;99.90;;;;;;6283542;22;20034;-94
2021/08/08 01:46:18;;;;;;;4.63;2.10;;;14.30;99.90;;;;;;6307621;22;20015;-94
2021/08/08 01:48:56;;;;;;;8.23;2.35;;;14.40;99.90;;;;;;6308855;22;20358;-93
2021/08/08 01:51:35;;;;;;;5.60;2.15;;;14.40;99.90;;;;;;6309418;22;20494;-95
2021/08/08 01:54:03;;;;;;;4.10;2.20;;;14.40;99.90;;;;;;6309060;22;20481;-93
2021/08/08 01:56:31;;;;;;;5.88;2.30;;;14.30;99.90;;;;;;6308464;22;20060;-94
2021/08/08 01:58:57;;;;;;;6.57;2.35;;;14.40;99.90;;;;;;6308444;22;20003;-93
2021/08/08 02:01:29;;;;;;;6.40;2.40;;;14.30;99.90;;;;;;6307940;22;20076;-92
2021/08/08 02:04:43;;;;;;;2.92;2.40;;;14.40;99.90;;;;;;6308150;22;20007;-94
2021/08/08 02:07:39;;;;;;;;;;;;;;;;;;;;;
2021/08/08 02:10:06;;;;;;;8.65;3.10;;;14.40;99.90;;;;;;6297690;22;20078;-92
2021/08/08 02:12:32;;;;;;;11.35;2.47;;;14.40;99.90;;;;;;6308802;22;20011;-93
2021/08/08 02:15:00;;;;;;;4.97;2.20;;;14.40;99.90;;;;;;6308167;22;20027;-92
2021/08/08 02:17:29;;;;;;;5.40;2.42;;;14.40;99.90;;;;;;6308187;22;20090;-92
2021/08/08 02:19:58;;;;;;;7.57;2.70;;;14.40;99.90;;;;;;6308949;22;19999;-94
2021/08/08 02:22:27;;;;;;;6.22;2.10;;;14.40;99.90;;;;;;6308466;22;20014;-93
2021/08/08 02:24:53;;;;;;;4.07;2.28;;;14.40;99.90;;;;;;6308141;22;20003;-92
2021/08/08 02:27:19;;;;;;;5.13;2.35;;;14.40;99.90;;;;;;6308649;22;20057;-92
2021/08/08 02:29:44;;;;;;;5.65;2.58;;;14.40;99.90;;;;;;6308372;22;20011;-93
2021/08/08 02:32:10;;;;;;;9.43;3.88;;;14.40;99.90;;;;;;6308902;22;20041;-92
2021/08/08 02:34:36;;;;;;;8.63;2.50;;;14.40;99.90;;;;;;6308896;22;20373;-92
2021/08/08 02:37:05;;;;;;;5.07;2.40;;;14.40;99.90;;;;;;6308738;22;20434;-92
2021/08/08 02:39:30;;;;;;;6.50;2.88;;;14.40;99.90;;;;;;6308581;22;20439;-91
2021/08/08 02:41:56;;;;;;;6.28;2.78;;;14.40;99.90;;;;;;6308531;22;20030;-92
2021/08/08 02:44:22;;;;;;;7.28;2.70;;;14.40;99.90;;;;;;6312516;22;20015;-92
2021/08/08 02:46:47;;;;;;;6.03;2.97;;;14.40;99.90;;;;;;6254531;22;20008;-90
2021/08/08 02:49:13;;;;;;;9.38;2.80;;;14.40;99.90;;;;;;6252605;22;20019;-92
2021/08/08 02:51:39;;;;;;;6.55;3.25;;;14.40;99.90;;;;;;6252651;22;20078;-91
2021/08/08 02:54:04;;;;;;;7.30;2.55;;;14.40;99.90;;;;;;6251545;22;20008;-92
2021/08/08 02:56:30;;;;;;;3.10;2.15;;;14.40;99.90;;;;;;6252031;22;20012;-92
2021/08/08 02:58:56;;;;;;;6.18;2.60;;;14.40;99.90;;;;;;6251805;22;20087;-92
2021/08/08 03:01:21;;;;;;;4.00;2.22;;;14.40;99.90;;;;;;6251746;22;20011;-92
2021/08/08 03:03:47;;;;;;;5.75;2.67;;;14.40;99.90;;;;;;6250698;22;20027;-91
2021/08/08 03:06:14;;;;;;;3.28;2.13;;;14.40;99.90;;;;;;6250940;22;20087;-92
2021/08/08 03:08:42;;;;;;;5.30;2.33;;;14.40;99.90;;;;;;6251115;22;20073;-93
2021/08/08 03:11:09;;;;;;;3.75;2.03;;;14.40;99.90;;;;;;6251431;22;20063;-93
2021/08/08 03:13:35;;;;;;;5.05;1.90;;;14.40;99.90;;;;;;6251601;22;20003;-92
2021/08/08 03:16:03;;;;;;;5.10;2.05;;;14.50;99.90;;;;;;6251712;22;20011;-92
2021/08/08 03:18:29;;;;;;;4.88;2.03;;;14.40;99.90;;;;;;6251706;22;20015;-93
2021/08/08 03:20:54;;;;;;;2.20;1.42;;;14.40;99.90;;;;;;6252323;22;20053;-92
2021/08/08 03:23:23;;;;;;;2.72;1.77;;;14.40;99.90;;;;;;6251924;22;20010;-94
2021/08/08 03:25:49;;;;;;;1.92;1.50;;;14.40;99.90;;;;;;6227185;22;20007;-94
2021/08/08 03:28:15;;;;;;;4.65;1.38;;;14.40;99.90;;;;;;6251784;22;20003;-93
2021/08/08 03:30:41;;;;;;;2.65;1.60;;;14.40;99.90;;;;;;6251606;22;20003;-93
2021/08/08 03:33:07;;;;;;;6.53;1.60;;;14.40;99.90;;;;;;6252459;22;20058;-92
2021/08/08 03:35:32;;;;;;;4.32;2.05;;;14.40;99.90;;;;;;6252161;22;20015;-92
2021/08/08 03:37:58;;;;;;;3.20;1.40;;;14.40;99.90;;;;;;6251855;22;20010;-93
2021/08/08 03:40:26;;;;;;;5.28;1.75;;;14.40;99.90;;;;;;6251878;22;20053;-94
2021/08/08 03:42:52;;;;;;;2.58;1.55;;;14.40;99.90;;;;;;6252010;22;20427;-93
2021/08/08 03:45:21;;;;;;;4.72;1.50;;;14.40;99.90;;;;;;6278497;22;20096;-93
2021/08/08 03:47:47;;;;;;;5.00;2.03;;;14.30;99.90;;;;;;6308846;22;20011;-92
2021/08/08 03:50:12;;;;;;;3.05;1.65;;;14.40;99.90;;;;;;6311342;22;20464;-94
2021/08/08 03:52:38;;;;;;;2.95;1.52;;;14.40;99.90;;;;;;6309294;22;20003;-94
2021/08/08 03:55:16;;;;;;;4.78;1.63;;;14.30;99.90;;;;;;6310328;22;20456;-94
2021/08/08 03:58:11;;;;;;;2.42;1.20;;;14.30;99.90;;;;;;6308831;22;20003;-93
2021/08/08 04:00:45;;;;;;;1.98;1.20;;;14.30;99.90;;;;;;6311247;22;19995;-93
2021/08/08 04:03:16;;;;;;;2.65;1.35;;;14.30;99.90;;;;;;6283966;22;20065;-94
2021/08/08 04:05:42;;;;;;;;;;;14.30;99.90;;;;;;6309613;22;19999;-94
2021/08/08 04:08:16;;;;;;;4.25;1.92;;;14.30;99.90;;;;;;6315017;22;19920;-94
2021/08/08 04:10:57;;;;;;;5.85;1.75;;;14.30;99.90;;;;;;6327616;22;20007;-94
2021/08/08 04:13:42;;;;;;;2.50;1.60;;;14.30;99.90;;;;;;6326697;22;19995;-94
2021/08/08 04:16:12;;;;;;;6.85;1.52;;;14.30;99.90;;;;;;6322274;22;20015;-94
2021/08/08 04:18:50;;;;;;;4.47;1.60;;;14.20;99.90;;;;;;6323119;22;20003;-94
2021/08/08 04:21:18;;;;;;;3.85;1.63;;;14.20;99.90;;;;;;6320733;22;20007;-94
2021/08/08 04:23:49;;;;;;;2.63;1.73;;;14.30;99.90;;;;;;6320146;22;20052;-94
2021/08/08 04:26:20;;;;;;;3.90;1.38;;;14.30;99.90;;;;;;6314662;22;20094;-93
2021/08/08 04:28:46;;;;;;;;;;;14.30;99.90;;;;;;6315210;22;20004;-94
2021/08/08 04:31:12;;;;;;;3.78;1.30;;;14.30;99.90;;;;;;6313316;22;19906;-93
2021/08/08 04:33:38;;;;;;;1.48;1.38;;;14.30;99.90;;;;;;6313090;22;20000;-93
2021/08/08 04:36:06;;;;;;;2.58;1.40;;;14.30;99.90;;;;;;6311199;22;20019;-93
2021/08/08 04:38:32;;;;;;;5.07;2.10;;;14.30;99.90;;;;;;6311314;22;19999;-93
2021/08/08 04:40:58;;;;;;;3.92;1.42;;;14.30;99.90;;;;;;6311186;22;20003;-92
2021/08/08 04:43:24;;;;;;;3.28;1.60;;;14.30;99.90;;;;;;6310861;22;20071;-93
2021/08/08 04:45:57;;;;;;;5.85;1.55;;;14.30;99.90;;;;;;6310780;22;20389;-96
2021/08/08 04:48:24;;;;;;;4.20;1.40;;;14.30;99.90;;;;;;6311339;22;20004;-93
2021/08/08 04:50:50;;;;;;;4.43;1.50;;;14.30;99.90;;;;;;6311017;22;20078;-93
2021/08/08 04:53:19;;;;;;;2.15;1.55;;;14.30;99.90;;;;;;6310158;22;20003;-92
2021/08/08 04:55:51;;;;;;;3.03;1.20;;;14.30;99.90;;;;;;6310822;22;20419;-93
2021/08/08 04:58:17;;;;;;;3.40;1.30;;;14.30;99.90;;;;;;6310709;22;20014;-93
2021/08/08 05:00:42;;;;;;;2.97;1.48;;;14.20;99.90;;;;;;6310787;22;20003;-92
2021/08/08 05:03:08;;;;;;;2.75;1.52;;;14.20;99.90;;;;;;6310587;22;20003;-92
2021/08/08 05:05:45;;;;;;;7.28;2.10;;;14.20;99.90;;;;;;6310720;22;20018;-93
2021/08/08 05:08:11;;;;;;;2.30;1.63;;;14.20;99.90;;;;;;6310726;22;20003;-93
2021/08/08 05:10:38;;;;;;;5.57;1.77;;;14.20;99.90;;;;;;6310114;22;20436;-92
2021/08/08 05:13:04;;;;;;;1.83;1.50;;;14.20;99.90;;;;;;6310127;22;20002;-92
2021/08/08 05:15:32;;;;;;;2.28;1.73;;;14.20;99.90;;;;;;6309721;22;20450;-93
2021/08/08 05:18:04;;;;;;;2.95;1.65;;;14.20;99.90;;;;;;6313144;22;20018;-93
2021/08/08 05:20:40;;;;;;;;;;;;;;;;;;;;;
2021/08/08 05:23:06;;;;;;;1.98;1.73;;;14.20;99.90;;;;;;6311458;22;20496;-93
2021/08/08 05:25:35;;;;;;;5.03;1.55;;;14.20;99.90;;;;;;6309861;22;20008;-93
2021/08/08 05:28:08;;;;;;;2.40;1.67;;;14.20;99.90;;;;;;6309376;22;20098;-93
2021/08/08 05:30:34;;;;;;;2.58;1.48;;;14.30;99.90;;;;;;6309327;22;20137;-93
2021/08/08 05:33:02;;;;;;;1.67;1.00;;;14.30;99.90;;;;;;6309890;22;20007;-93
2021/08/08 05:35:28;;;;;;;4.03;1.30;;;14.30;99.90;;;;;;6309533;22;20438;-92
2021/08/08 05:37:54;;;;;;;2.45;1.45;;;14.30;99.90;;;;;;6309252;22;20003;-93
2021/08/08 05:40:19;;;;;;;3.95;1.50;;;14.40;99.90;;;;;;6309296;22;20003;-92
2021/08/08 05:42:47;;;;;;;3.42;1.60;;;14.40;99.90;;;;;;6309531;22;20425;-92
2021/08/08 05:45:22;;;;;;;2.47;1.10;;;14.40;99.90;;;;;;6309331;22;20096;-92
2021/08/08 05:48:26;;;;;;;3.97;1.50;;;14.40;99.90;;;;;;6309419;22;20003;-94
2021/08/08 05:50:54;;;;;;;3.08;1.40;;;14.40;99.90;;;;;;6309089;22;20007;-93
2021/08/08 05:53:28;;;;;;;2.78;1.23;;;14.40;99.90;;;;;;6309501;22;20013;-92
2021/08/08 05:56:21;;;;;;;3.22;1.27;;;14.40;99.90;;;;;;6308937;22;20011;-94
2021/08/08 05:58:56;;;;;;;3.08;1.13;;;14.40;99.90;;;;;;6308758;22;20015;-93
2021/08/08 06:01:42;;;;;;;4.63;2.45;;;14.40;99.90;;;;;;6309643;22;20636;-93
2021/08/08 06:07:52;;;;;;;2.00;1.20;;;14.50;99.90;;;;;;6305527;22;20057;-92
2021/08/08 06:10:34;;;;;;;0.80;0.80;;;14.60;99.90;;;;;;6308743;22;20007;-94
2021/08/08 06:13:00;;;;;;;2.58;0.85;;;14.70;99.90;;;;;;6308731;22;20007;-92
2021/08/08 06:15:27;;;;;;;0.95;0.80;;;14.70;99.90;;;;;;6307846;22;20014;-92
2021/08/08 06:17:52;;;;;;;1.85;1.10;;;14.70;99.90;;;;;;6308261;22;20065;-93
2021/08/08 06:20:19;;;;;;;1.63;0.80;;;14.70;99.90;;;;;;6308738;22;19999;-91
2021/08/08 06:22:44;;;;;;;1.90;1.02;;;14.70;99.90;;;;;;6308697;22;20319;-90
2021/08/08 06:25:10;;;;;;;3.40;1.30;;;14.70;99.90;;;;;;6308833;22;20007;-91
2021/08/08 06:27:36;;;;;;;4.35;1.10;;;14.70;99.90;;;;;;6308816;22;20007;-91
2021/08/08 06:30:03;;;;;;;3.22;1.40;;;14.70;99.90;;;;;;6308603;22;19999;-91
2021/08/08 06:32:29;;;;;;;3.00;1.40;;;14.70;99.90;;;;;;6307247;22;20030;-92
2021/08/08 06:34:55;;;;;;;2.20;1.50;;;14.80;99.90;;;;;;6308985;22;20017;-92
2021/08/08 06:37:21;;;;;;;2.25;1.20;;;14.80;99.90;;;;;;6308834;22;20011;-92
2021/08/08 06:39:50;;;;;;;3.80;1.30;;;14.80;99.90;;;;;;6308019;22;20445;-94
2021/08/08 06:42:15;;;;;;;5.95;1.40;;;14.80;99.90;;;;;;6284029;22;20015;-92
2021/08/08 06:44:44;;;;;;;3.00;1.33;;;14.80;99.90;;;;;;6304002;22;20305;-93
2021/08/08 06:47:21;;;;;;;2.13;1.23;;;14.90;99.90;;;;;;6252110;22;20015;-93
2021/08/08 06:49:46;;;;;;;1.40;1.30;;;14.90;99.90;;;;;;6252370;22;19996;-92
2021/08/08 06:52:15;;;;;;;4.25;1.33;;;15.00;99.90;;;;;;6251982;22;20011;-93
2021/08/08 06:54:40;;;;;;;2.97;1.30;;;15.00;99.90;;;;;;6251705;22;20026;-92
2021/08/08 07:00:42;;;;;;;2.70;1.10;;;15.10;99.90;;;;;;6205936;23;20043;-94
2021/08/08 07:03:08;;;;;;;1.50;1.30;;;15.20;99.90;;;;;;6189357;23;20091;-93
2021/08/08 07:05:33;;;;;;;2.60;1.17;;;15.20;99.90;;;;;;6189567;23;20008;-93
2021/08/08 07:08:02;;;;;;;6.38;1.42;;;15.20;99.90;;;;;;6189472;23;20047;-94
2021/08/08 07:10:28;;;;;;;3.33;1.55;;;15.30;99.90;;;;;;6189339;23;20165;-93
2021/08/08 07:12:54;;;;;;;2.97;1.42;;;15.20;99.90;;;;;;6189221;23;20009;-92
2021/08/08 07:15:19;;;;;;;3.45;1.33;;;15.30;99.90;;;;;;6189051;23;20095;-93
2021/08/08 07:17:45;;;;;;;2.83;1.45;;;15.30;99.90;;;;;;6189776;23;20007;-93
2021/08/08 07:20:11;;;;;;;5.30;1.55;;;15.30;99.90;;;;;;6188943;23;20000;-92
2021/08/08 07:22:37;;;;;;;4.38;1.58;;;15.30;99.90;;;;;;6189575;23;20019;-93
2021/08/08 07:25:03;;;;;;;2.40;1.33;;;15.30;99.90;;;;;;6189020;23;20313;-93
2021/08/08 07:27:29;;;;;;;2.58;1.40;;;15.30;99.90;;;;;;6189339;23;20535;-93
2021/08/08 07:29:57;;;;;;;2.45;1.63;;;15.30;99.90;;;;;;6190072;23;20001;-93
2021/08/08 07:32:23;;;;;;;3.20;1.58;;;15.40;99.90;;;;;;6191144;23;20012;-93
2021/08/08 07:34:48;;;;;;;2.47;1.48;;;15.40;99.90;;;;;;6225056;22;20316;-92
2021/08/08 07:37:14;;;;;;;2.30;1.13;;;15.50;99.90;;;;;;6252161;22;20012;-93
2021/08/08 07:39:40;;;;;;;3.72;1.20;;;15.60;99.90;;;;;;6252712;22;20004;-93
2021/08/08 07:42:06;;;;;;;2.00;1.30;;;15.60;99.90;;;;;;6252808;22;20007;-93
2021/08/08 07:44:32;;;;;;;2.65;1.40;;;15.70;99.90;;;;;;6252775;22;20027;-92
2021/08/08 07:47:00;;;;;;;1.30;1.08;;;15.70;99.90;;;;;;6252916;22;20007;-92
2021/08/08 07:49:25;;;;;;;3.35;1.27;;;15.80;99.90;;;;;;6252472;22;20007;-91
2021/08/08 07:51:51;;;;;;;1.77;1.30;;;15.80;99.90;;;;;;6253886;22;20008;-92
2021/08/08 07:54:17;;;;;;;0.80;0.77;;;15.80;99.90;;;;;;6255357;22;20004;-92
2021/08/08 07:56:43;;;;;;;1.45;0.82;;;15.70;99.90;;;;;;6255925;22;20022;-92
2021/08/08 07:59:09;;;;;;;1.10;0.90;;;15.60;99.90;;;;;;6256819;22;20011;-93
2021/08/08 08:01:35;;;;;;;1.75;0.80;;;15.60;99.90;;;;;;6254843;22;20316;-94
2021/08/08 08:04:00;;;;;;;4.55;0.80;;;15.50;99.90;;;;;;6258884;22;20392;-93
2021/08/08 08:06:27;;;;;;;2.30;0.75;;;15.50;99.90;;;;;;6261383;22;20000;-91
2021/08/08 08:08:52;;;;;;;2.45;0.57;;;15.50;99.90;;;;;;6259072;22;20067;-91
2021/08/08 08:11:18;;;;;;;1.55;0.80;;;15.40;99.90;;;;;;6258149;22;20015;-91
2021/08/08 08:13:44;;;;;;;1.30;0.50;;;15.40;99.90;;;;;;6257723;22;20021;-92
2021/08/08 08:16:10;;;;;;;3.80;1.00;;;15.40;99.90;;;;;;6253419;22;20012;-91
2021/08/08 08:18:38;;;;;;;1.15;0.65;;;15.30;99.90;;;;;;6251162;22;19996;-92
2021/08/08 08:21:07;;;;;;;1.08;0.60;;;15.30;99.90;;;;;;6250661;22;20362;-94
2021/08/08 08:23:32;;;;;;;1.17;0.50;;;15.30;99.90;;;;;;6253148;22;20004;-92
2021/08/08 08:26:01;;;;;;;0.50;0.40;;;15.20;99.90;;;;;;6252840;22;20004;-93
2021/08/08 08:28:29;;;;;;;2.85;1.70;;;15.10;99.90;;;;;;6261366;22;20007;-93
2021/08/08 08:30:56;;;;;;;2.63;1.00;;;15.10;99.90;;;;;;6255124;22;20011;-93
2021/08/08 08:33:22;;;;;;;2.00;0.80;;;15.10;99.90;;;;;;6254228;22;20447;-93
2021/08/08 08:35:48;;;;;;;0.98;0.65;;;15.00;99.90;;;;;;6262635;22;20007;-92
2021/08/08 08:38:14;;;;;;;2.60;1.20;;;15.00;99.90;;;;;;6267557;22;20007;-93
2021/08/08 08:40:41;;;;;;;1.33;1.00;;;14.90;99.90;;;;;;6267681;22;20011;-94
2021/08/08 08:43:08;;;;;;;0.93;0.80;;;14.90;99.90;;;;;;6276231;22;20051;-94
2021/08/08 08:45:36;;;;;;;1.65;0.70;;;14.90;99.90;;;;;;6303328;22;20026;-94
2021/08/08 08:48:02;;;;;;;1.45;1.05;;;14.90;99.90;;;;;;6320372;22;20010;-91
2021/08/08 08:50:28;;;;;;;7.70;1.08;;;14.90;99.90;;;;;;6309925;22;20088;-93
2021/08/08 08:52:54;;;;;;;4.18;2.67;;;14.90;99.90;;;;;;6312165;22;20033;-92
2021/08/08 08:55:20;;;;;;;2.95;1.33;;;14.90;99.90;;;;;;6310068;22;20015;-92
2021/08/08 08:57:46;;;;;;;3.10;1.90;;;14.90;99.90;;;;;;6307517;22;20007;-92
2021/08/08 09:00:13;;;;;;;4.32;2.97;;;14.90;99.90;;;;;;6308439;22;20003;-93
2021/08/08 09:02:38;;;;;;;4.75;2.55;;;14.90;99.90;;;;;;6308408;22;20003;-92
2021/08/08 09:05:04;;;;;;;5.97;3.58;;;14.90;99.90;;;;;;6310035;22;20004;-96
2021/08/08 09:07:30;;;;;;;9.45;6.15;;;14.90;99.90;;;;;;6310575;22;20008;-95
2021/08/08 09:09:57;;;;;;;10.25;6.25;;;15.00;99.90;;;;;;6309575;22;19995;-92
2021/08/08 09:12:24;;;;;;;6.82;4.80;;;15.00;99.90;;;;;;6309796;22;20007;-92
2021/08/08 09:15:02;;;;;;;8.07;5.40;;;15.00;99.90;;;;;;6311729;22;20091;-95
2021/08/08 09:17:31;;;;;;;7.85;5.15;;;15.10;99.90;;;;;;6310122;22;20011;-92
2021/08/08 09:20:04;;;;;;;10.32;5.82;;;15.10;99.90;;;;;;6310462;22;20019;-95
2021/08/08 09:22:30;;;;;;;7.97;4.93;;;15.10;99.90;;;;;;6284684;22;20011;-94
2021/08/08 09:24:57;;;;;;;6.05;3.80;;;15.20;99.90;;;;;;6314049;22;20000;-93
2021/08/08 09:27:36;;;;;;;6.65;4.28;;;15.20;99.90;;;;;;6308811;22;20505;-93
2021/08/08 09:30:22;;;;;;;7.03;3.13;;;15.20;99.90;;;;;;6309300;22;19999;-94
2021/08/08 09:33:02;;;;;;;3.78;2.65;;;15.20;99.90;;;;;;6308769;22;20070;-91
2021/08/08 09:35:35;;;;;;;7.47;2.67;;;15.30;99.90;;;;;;6309062;22;20012;-91
2021/08/08 09:38:07;;;;;;;2.35;1.90;;;15.30;99.90;;;;;;6311223;22;20385;-92
2021/08/08 09:40:36;;;;;;;2.13;1.88;;;15.30;99.90;;;;;;6311533;22;20084;-93
2021/08/08 09:43:03;;;;;;;2.75;1.90;;;15.30;99.90;;;;;;6287070;22;20026;-92
2021/08/08 09:45:36;;;;;;;4.95;2.28;;;15.30;99.90;;;;;;6308737;22;20015;-92
2021/08/08 09:48:03;;;;;;;2.67;1.77;;;15.30;99.90;;;;;;6307997;22;20007;-93
2021/08/08 09:50:29;;;;;;;2.35;1.70;;;15.30;99.90;;;;;;6310049;22;20007;-94
2021/08/08 09:53:01;;;;;;;4.47;2.30;;;15.30;99.90;;;;;;6309324;22;20338;-94
2021/08/08 09:55:30;;;;;;;2.72;1.70;;;15.30;99.90;;;;;;6309615;22;20015;-95
2021/08/08 09:57:58;;;;;;;5.10;2.70;;;15.40;99.90;;;;;;6310525;22;20003;-92
2021/08/08 10:00:38;;;;;;;4.10;1.67;;;15.40;99.90;;;;;;6309434;22;20011;-94
2021/08/08 10:03:06;;;;;;;3.30;2.03;;;15.40;99.90;;;;;;6310580;22;20039;-92
2021/08/08 10:05:34;;;;;;;4.72;1.90;;;15.40;99.90;;;;;;6309651;22;20339;-92
2021/08/08 10:08:08;;;;;;;2.83;1.92;;;15.40;99.90;;;;;;6309081;22;20014;-93
2021/08/08 10:10:39;;;;;;;2.78;1.70;;;15.40;99.90;;;;;;6309721;22;20010;-93
2021/08/08 10:13:08;;;;;;;4.30;1.90;;;15.40;99.90;;;;;;6309524;22;20011;-93
2021/08/08 10:15:39;;;;;;;4.28;1.73;;;15.40;99.90;;;;;;6309844;22;20308;-93
2021/08/08 10:18:06;;;;;;;2.83;1.70;;;15.40;99.90;;;;;;6310365;22;20014;-93
2021/08/08 10:20:34;;;;;;;3.42;1.67;;;15.40;99.90;;;;;;6309904;22;20026;-93
2021/08/08 10:23:02;;;;;;;1.80;1.40;;;15.40;99.90;;;;;;6309343;22;20003;-94
2021/08/08 10:25:28;;;;;;;3.83;1.67;;;15.40;99.90;;;;;;6309381;22;20024;-94
2021/08/08 10:27:54;;;;;;;3.72;1.60;;;15.40;99.90;;;;;;6309154;22;20446;-95
2021/08/08 10:30:20;;;;;;;2.97;1.63;;;15.40;99.90;;;;;;6309320;22;19999;-94
2021/08/08 10:32:47;;;;;;;4.40;1.65;;;15.40;99.90;;;;;;6309593;22;20290;-94
2021/08/08 10:35:14;;;;;;;7.38;1.80;;;15.40;99.90;;;;;;6309709;22;20066;-92
2021/08/08 10:37:41;;;;;;;3.00;2.25;;;15.40;99.90;;;;;;6309407;22;20056;-94
2021/08/08 10:40:08;;;;;;;5.25;2.00;;;15.40;99.90;;;;;;6309850;22;19999;-93
2021/08/08 10:42:41;;;;;;;8.25;3.13;;;15.40;99.90;;;;;;6309625;22;20022;-94
2021/08/08 10:45:08;;;;;;;4.93;3.00;;;15.50;99.90;;;;;;6309300;22;20011;-93
2021/08/08 10:47:34;;;;;;;5.88;2.90;;;15.70;99.90;;;;;;6309135;22;20011;-94
2021/08/08 10:50:10;;;;;;;9.32;3.15;;;15.70;99.90;;;;;;6309447;22;20000;-95
2021/08/08 10:52:43;;;;;;;7.05;3.20;;;15.70;99.90;;;;;;6309179;22;20041;-95
2021/08/08 10:55:29;;;;;;;7.25;3.33;;;15.80;99.90;;;;;;6309547;22;20023;-94
2021/08/08 10:57:55;;;;;;;8.55;2.80;;;15.80;99.90;;;;;;6309509;22;20086;-94
2021/08/08 11:00:21;;;;;;;6.00;3.22;;;15.80;99.90;;;;;;6309722;22;20010;-94
2021/08/08 11:02:47;;;;;;;7.05;3.72;;;15.80;99.90;;;;;;6309371;22;20007;-93
2021/08/08 11:05:17;;;;;;;8.93;3.17;;;15.80;99.90;;;;;;6309011;22;20082;-93
2021/08/08 11:07:44;;;;;;;7.97;3.28;;;15.80;99.90;;;;;;6307596;22;20053;-94
2021/08/08 11:10:11;;;;;;;11.43;3.67;;;15.80;99.90;;;;;;6307018;22;20068;-94
2021/08/08 11:12:40;;;;;;;7.18;4.20;;;15.80;99.90;;;;;;6307497;22;20030;-95
2021/08/08 11:15:10;;;;;;;7.43;3.35;;;15.80;99.90;;;;;;6307738;22;20086;-94
2021/08/08 11:17:38;;;;;;;7.07;3.00;;;15.80;99.90;;;;;;6307823;22;20011;-94
2021/08/08 11:20:05;;;;;;;5.88;2.63;;;15.70;99.90;;;;;;6307793;22;20012;-92
2021/08/08 11:22:30;;;;;;;6.38;2.88;;;15.80;99.90;;;;;;6307219;22;20426;-93
2021/08/08 11:25:03;;;;;;;7.75;2.72;;;15.70;99.90;;;;;;6307500;22;20011;-93
2021/08/08 11:27:33;;;;;;;6.55;2.88;;;15.90;99.90;;;;;;6307039;22;20030;-93
2021/08/08 11:30:00;;;;;;;6.57;3.17;;;16.00;99.90;;;;;;6309300;22;20003;-93
2021/08/08 11:32:31;;;;;;;7.43;2.92;;;16.10;99.90;;;;;;6309414;22;20010;-95
2021/08/08 11:35:11;;;;;;;4.13;2.55;;;16.10;99.90;;;;;;6310056;22;20003;-93
2021/08/08 11:37:49;;;;;;;3.90;2.15;;;16.10;99.90;;;;;;6310461;22;20030;-94
2021/08/08 11:40:23;;;;;;;2.95;1.70;;;16.10;99.90;;;;;;6309858;22;20007;-93
2021/08/08 11:43:01;;;;;;;2.95;1.83;;;16.20;99.90;;;;;;6308243;22;20019;-93
2021/08/08 11:45:58;;;;;;;4.03;2.08;;;16.20;99.90;;;;;;6307476;22;20461;-93
2021/08/08 11:48:29;;;;;;;3.05;2.00;;;16.40;99.90;;;;;;6283810;22;20018;-93
2021/08/08 11:51:00;;;;;;;7.90;2.20;;;16.60;99.90;;;;;;6315737;22;20063;-92
2021/08/08 11:53:44;;;;;;;4.63;2.22;;;16.80;99.90;;;;;;6323985;22;20007;-94
2021/08/08 11:56:18;;;;;;;4.68;2.10;;;17.10;99.90;;;;;;6320211;22;20018;-94
2021/08/08 11:58:45;;;;;;;3.72;2.20;;;17.20;99.90;;;;;;6311589;22;20068;-94
2021/08/08 12:01:12;;;;;;;3.05;1.90;;;17.20;99.90;;;;;;6312705;22;20007;-93
2021/08/08 12:03:38;;;;;;;5.20;2.10;;;17.20;99.90;;;;;;6310693;22;20063;-95
2021/08/08 12:06:04;;;;;;;4.95;1.50;;;17.20;99.90;;;;;;6310713;22;20007;-94
2021/08/08 12:08:30;;;;;;;1.95;1.60;;;17.10;99.90;;;;;;6309477;22;20006;-94
2021/08/08 12:11:00;;;;;;;2.65;1.30;;;16.90;99.90;;;;;;6308814;22;20011;-94
2021/08/08 12:13:26;;;;;;;1.63;1.52;;;16.80;99.90;;;;;;6308230;22;20446;-95
2021/08/08 12:15:52;;;;;;;4.53;1.80;;;16.70;99.90;;;;;;6307156;22;20007;-94
2021/08/08 12:18:30;;;;;;;4.43;2.47;;;16.70;99.90;;;;;;6307420;22;19996;-94
2021/08/08 12:20:56;;;;;;;7.43;2.05;;;16.80;99.90;;;;;;6307056;22;20086;-94
2021/08/08 12:23:26;;;;;;;4.88;1.75;;;16.90;99.90;;;;;;6307082;22;20003;-93
2021/08/08 12:26:03;;;;;;;3.03;1.67;;;17.00;99.90;;;;;;6307188;22;20003;-95
2021/08/08 12:28:29;;;;;;;6.88;2.25;;;17.10;99.90;;;;;;6307043;22;20007;-95
2021/08/08 12:31:10;;;;;;;5.30;2.35;;;17.10;99.90;;;;;;6307413;22;20044;-93
2021/08/08 12:33:37;;;;;;;7.50;2.28;;;17.30;99.90;;;;;;6307406;22;20086;-94
2021/08/08 12:36:11;;;;;;;3.00;1.40;;;17.60;99.90;;;;;;6306977;22;20004;-93
2021/08/08 12:38:48;;;;;;;3.50;1.65;;;17.90;99.90;;;;;;6308078;22;20007;-93
2021/08/08 12:41:25;;;;;;;2.88;1.60;;;17.90;99.90;;;;;;6309232;22;20082;-94
2021/08/08 12:44:01;;;;;;;5.32;1.70;;;17.90;99.90;;;;;;6309635;22;20036;-92
2021/08/08 12:46:33;;;;;;;3.80;1.70;;;17.80;99.90;;;;;;6309642;22;20007;-95
2021/08/08 12:49:02;;;;;;;3.47;1.52;;;17.60;99.90;;;;;;6309788;22;20090;-94
2021/08/08 12:51:28;;;;;;;4.95;1.60;;;17.50;99.90;;;;;;6309255;22;20076;-93
2021/08/08 12:53:54;;;;;;;5.75;1.60;;;17.50;99.90;;;;;;6310051;22;20039;-93
2021/08/08 12:56:20;;;;;;;3.38;1.80;;;17.40;99.90;;;;;;6312327;22;20045;-93
2021/08/08 12:58:49;;;;;;;7.55;1.77;;;17.40;99.90;;;;;;6320341;22;19999;-94
2021/08/08 13:01:28;;;;;;;3.22;1.80;;;17.30;99.90;;;;;;6325462;22;20012;-93
2021/08/08 13:03:54;;;;;;;4.50;2.15;;;17.30;99.90;;;;;;6334358;22;19999;-93
2021/08/08 13:06:20;;;;;;;3.70;1.73;;;17.10;99.90;;;;;;6335092;22;20014;-92
2021/08/08 13:08:46;;;;;;;3.65;1.63;;;17.10;99.90;;;;;;6316103;22;20007;-95
2021/08/08 13:11:12;;;;;;;3.53;1.70;;;17.00;99.90;;;;;;6310671;22;20434;-94
2021/08/08 13:13:38;;;;;;;1.95;0.93;;;16.90;99.90;;;;;;6312616;22;20008;-92
2021/08/08 13:16:04;;;;;;;2.40;1.38;;;16.80;99.90;;;;;;6310638;22;20046;-93
2021/08/08 13:18:29;;;;;;;3.17;1.50;;;16.70;99.90;;;;;;6312707;22;20006;-93